Terminal Aerodrome Forecast
Issued by NWS Central Illinois

Home | Current Version | Previous Version | Text Only | Print | Product List | Glossary On
Versions: 1 2 3 4 5 6 7 8 9 10 11 12 13 14 15 16 17 18 19 20 21
028
FTUS43 KILX 230850 AAA
TAFSPI
TAF AMD
KSPI 230850Z 2309/2406 33010KT 5SM BR VCSH BKN008
      TEMPO 2309/2311 3SM -SHRA BR
     FM231400 33010KT P6SM OVC010
     FM231800 33010KT P6SM BKN020
     FM240000 31004KT P6SM BKN025=

USA.gov is the U.S. government's official web portal to all federal, state and local government web resources and services.